createdAt,value
2022-08-03T00:03:35.150Z,98425.47
2022-08-03T00:08:40.107Z,98424.13
2022-08-03T00:13:42.377Z,98424.59
2022-08-03T00:18:44.411Z,98420.81
2022-08-03T00:23:51.804Z,98414.38
2022-08-03T00:28:54.972Z,98410.81
2022-08-03T00:33:58.936Z,98415.78
2022-08-03T00:39:01.852Z,98413.59
2022-08-03T00:44:04.165Z,98404.53
2022-08-03T00:49:06.148Z,98412.16
2022-08-03T00:54:08.103Z,98409.72
2022-08-03T00:59:14.749Z,98405.97
2022-08-03T01:04:16.852Z,98405.06
2022-08-03T01:09:42.933Z,98411.38
2022-08-03T01:15:00.531Z,98405.19
2022-08-03T01:20:12.351Z,98413.59
2022-08-03T01:25:48.214Z,98409.81
2022-08-03T01:31:02.309Z,98410.19
2022-08-03T01:36:08.017Z,98406.63
2022-08-03T01:41:19.057Z,98405.50
2022-08-03T01:46:23.137Z,98406.78
2022-08-03T01:51:56.108Z,98404.13
2022-08-03T01:56:56.979Z,98399.06
2022-08-03T02:02:32.015Z,98404.81
2022-08-03T02:07:24.861Z,98400.00
2022-08-03T02:12:31.481Z,98407.59
2022-08-03T02:17:38.524Z,98402.78
2022-08-03T02:22:44.864Z,98397.91
2022-08-03T02:27:55.041Z,98388.63
2022-08-03T02:32:59.500Z,98384.59
2022-08-03T02:38:04.622Z,98384.28
2022-08-03T02:43:29.891Z,98387.13
2022-08-03T02:48:37.449Z,98379.69
2022-08-03T02:53:41.237Z,98387.25
2022-08-03T02:58:46.065Z,98379.81
2022-08-03T03:03:50.094Z,98386.34
2022-08-03T03:08:59.453Z,98380.50
2022-08-03T03:14:03.074Z,98375.09
2022-08-03T03:19:08.825Z,98384.53
2022-08-03T03:24:11.851Z,98389.22
2022-08-03T03:29:13.873Z,98391.28
2022-08-03T03:34:16.643Z,98391.53
2022-08-03T03:39:18.695Z,98391.75
2022-08-03T03:44:20.911Z,98389.00
2022-08-03T03:49:23.139Z,98389.47
2022-08-03T03:54:25.443Z,98384.63
2022-08-03T03:59:31.234Z,98389.91
2022-08-03T04:04:57.032Z,98388.09
2022-08-03T04:10:17.829Z,98387.63
2022-08-03T04:15:24.278Z,98390.59
2022-08-03T04:20:32.885Z,98389.13
2022-08-03T04:25:37.597Z,98395.53
2022-08-03T04:30:48.066Z,98397.25
2022-08-03T04:36:01.758Z,98398.19
2022-08-03T04:41:12.436Z,98397.81
2022-08-03T04:46:15.669Z,98394.03
2022-08-03T04:51:18.004Z,98406.88
2022-08-03T04:56:20.207Z,98409.78
2022-08-03T05:01:23.269Z,98412.06
2022-08-03T05:06:25.424Z,98412.25
2022-08-03T05:11:27.802Z,98415.34
2022-08-03T05:16:29.830Z,98412.56
2022-08-03T05:21:50.347Z,98416.44
2022-08-03T05:26:54.298Z,98409.72
2022-08-03T05:31:56.750Z,98412.34
2022-08-03T05:36:58.769Z,98414.38
2022-08-03T05:42:01.055Z,98415.13
2022-08-03T05:47:02.835Z,98416.34
2022-08-03T05:52:14.750Z,98413.88
2022-08-03T05:57:18.119Z,98417.72
2022-08-03T06:02:20.675Z,98415.00
2022-08-03T06:07:22.849Z,98413.56
2022-08-03T06:12:25.109Z,98414.31
2022-08-03T06:17:27.182Z,98412.63
2022-08-03T06:22:47.686Z,98419.09
2022-08-03T06:27:56.860Z,98420.13
2022-08-03T06:32:58.686Z,98421.69
2022-08-03T06:38:00.930Z,98414.16
2022-08-03T06:43:04.225Z,98417.28
2022-08-03T06:48:06.768Z,98413.81
2022-08-03T06:53:19.749Z,98423.31
2022-08-03T06:58:23.769Z,98415.34
2022-08-03T07:03:25.816Z,98417.13
2022-08-03T07:08:33.808Z,98426.28
2022-08-03T07:13:36.871Z,98426.94
2022-08-03T07:18:42.344Z,98415.13
2022-08-03T07:23:44.197Z,98419.22
2022-08-03T07:28:46.522Z,98417.97
2022-08-03T07:33:48.619Z,98411.16
2022-08-03T07:38:51.126Z,98412.78
2022-08-03T07:43:53.208Z,98409.63
2022-08-03T07:48:55.419Z,98419.50
2022-08-03T07:53:58.135Z,98413.69
2022-08-03T07:59:00.702Z,98412.94
2022-08-03T08:04:02.988Z,98410.81
2022-08-03T08:09:05.364Z,98409.47
2022-08-03T08:14:08.310Z,98408.16
2022-08-03T08:19:10.337Z,98404.13
2022-08-03T08:24:18.063Z,98407.06
2022-08-03T08:29:23.303Z,98398.78
2022-08-03T08:34:25.395Z,98393.97
2022-08-03T08:39:27.518Z,98398.69
2022-08-03T08:44:30.306Z,98399.19
2022-08-03T08:49:36.058Z,98396.50
2022-08-03T08:54:45.904Z,98396.75
2022-08-03T08:59:49.715Z,98391.63
2022-08-03T09:04:54.134Z,98392.09
2022-08-03T09:10:11.163Z,98392.53
2022-08-03T09:16:00.825Z,98391.94
2022-08-03T09:21:30.527Z,98380.63
2022-08-03T09:26:38.254Z,98377.56
2022-08-03T09:31:43.467Z,98380.16
2022-08-03T09:36:48.373Z,98379.25
2022-08-03T09:42:15.318Z,98373.59
2022-08-03T09:47:29.659Z,98377.00
2022-08-03T09:52:38.954Z,98389.03
2022-08-03T09:57:50.639Z,98390.59
2022-08-03T10:03:05.548Z,98382.19
2022-08-03T10:08:15.866Z,98372.13
2022-08-03T10:13:19.217Z,98367.97
2022-08-03T10:18:21.067Z,98362.84
2022-08-03T10:23:25.019Z,98366.28
2022-08-03T10:28:32.966Z,98360.78
2022-08-03T10:33:51.126Z,98351.91
2022-08-03T10:38:57.162Z,98352.34
2022-08-03T10:44:05.815Z,98355.41
2022-08-03T10:49:08.740Z,98351.13
2022-08-03T10:54:58.194Z,98348.63
2022-08-03T11:00:03.156Z,98341.22
2022-08-03T11:05:30.374Z,98341.06
2022-08-03T11:10:32.543Z,98329.41
2022-08-03T11:15:36.290Z,98333.03
2022-08-03T11:20:56.054Z,98324.13
2022-08-03T11:26:27.779Z,98327.41
2022-08-03T11:31:52.663Z,98329.13
2022-08-03T11:37:25.372Z,98319.00
2022-08-03T11:42:33.450Z,98312.94
2022-08-03T11:47:50.156Z,98305.16
2022-08-03T11:52:55.021Z,98310.41
2022-08-03T11:59:02.706Z,98302.31
2022-08-03T12:03:22.344Z,98308.28
2022-08-03T12:08:27.049Z,98307.47
2022-08-03T12:14:36.660Z,98295.97
2022-08-03T12:19:07.152Z,98296.84
2022-08-03T12:24:09.582Z,98292.00
2022-08-03T12:29:23.298Z,98293.03
2022-08-03T12:34:47.607Z,98289.25
2022-08-03T12:40:02.449Z,98285.78
2022-08-03T12:45:21.581Z,98273.38
2022-08-03T12:50:25.527Z,98273.38
2022-08-03T12:55:57.135Z,98266.41
2022-08-03T13:00:57.075Z,98269.22
2022-08-03T13:05:59.320Z,98265.63
2022-08-03T13:11:57.899Z,98263.44
2022-08-03T13:16:50.861Z,98261.84
2022-08-03T13:22:04.092Z,98267.22
2022-08-03T13:28:11.075Z,98265.31
2022-08-03T13:32:30.531Z,98264.44
2022-08-03T13:37:32.887Z,98258.69
2022-08-03T13:42:36.715Z,98242.97
2022-08-03T13:47:39.516Z,98247.16
2022-08-03T13:52:41.614Z,98247.94
2022-08-03T13:58:03.970Z,98241.19
2022-08-03T14:03:13.215Z,98231.84
2022-08-03T14:08:16.337Z,98235.63
2022-08-03T14:13:18.449Z,98229.84
2022-08-03T14:18:27.640Z,98226.56
2022-08-03T14:23:31.869Z,98229.75
2022-08-03T14:28:35.986Z,98227.25
2022-08-03T14:33:38.656Z,98218.97
2022-08-03T14:38:40.886Z,98220.03
2022-08-03T14:44:02.023Z,98224.56
2022-08-03T14:50:34.540Z,98217.63
2022-08-03T14:54:30.998Z,98220.03
2022-08-03T14:59:56.063Z,98217.28
2022-08-03T15:04:55.275Z,98211.00
2022-08-03T15:09:57.652Z,98208.19
2022-08-03T15:14:59.942Z,98207.91
2022-08-03T15:20:22.495Z,98203.50
2022-08-03T15:26:31.864Z,98195.88
2022-08-03T15:30:46.480Z,98195.78
2022-08-03T15:35:49.925Z,98197.97
2022-08-03T15:40:54.859Z,98198.78
2022-08-03T15:51:20.315Z,98182.03
2022-08-03T15:56:22.180Z,98180.94
2022-08-03T16:01:25.550Z,98175.84
2022-08-03T16:06:29.714Z,98181.91
2022-08-03T16:11:37.827Z,98180.31
2022-08-03T16:16:41.230Z,98177.25
2022-08-03T16:21:48.908Z,98173.06
2022-08-03T16:26:52.887Z,98175.88
2022-08-03T16:31:54.936Z,98175.66
2022-08-03T16:36:56.787Z,98170.72
2022-08-03T16:42:01.136Z,98178.09
2022-08-03T16:47:04.042Z,98173.88
2022-08-03T16:52:07.178Z,98179.84
2022-08-03T16:57:09.973Z,98179.66
2022-08-03T17:02:26.129Z,98174.28
2022-08-03T17:07:30.297Z,98187.19
2022-08-03T17:12:32.662Z,98183.81
2022-08-03T17:17:37.598Z,98182.31
2022-08-03T17:23:04.049Z,98192.34
2022-08-03T17:28:48.572Z,98190.94
2022-08-03T17:33:38.518Z,98192.69
2022-08-03T17:38:41.916Z,98194.97
2022-08-03T17:44:16.046Z,98203.66
2022-08-03T17:49:24.655Z,98201.63
2022-08-03T17:55:55.276Z,98204.25
2022-08-03T18:00:32.836Z,98202.91
2022-08-03T18:06:11.057Z,98206.88
2022-08-03T18:11:16.840Z,98208.69
2022-08-03T18:16:46.314Z,98223.84
2022-08-03T18:22:03.740Z,98225.06
2022-08-03T18:27:10.826Z,98221.94
2022-08-03T18:37:51.994Z,98225.75
2022-08-03T18:42:54.882Z,98226.88
2022-08-03T18:48:11.216Z,98232.84
2022-08-03T18:54:02.493Z,98230.78
2022-08-03T18:59:02.585Z,98239.13
2022-08-03T19:04:19.236Z,98245.34
2022-08-03T19:09:48.925Z,98250.72
2022-08-03T19:15:00.486Z,98252.41
2022-08-03T19:20:06.509Z,98255.69
2022-08-03T19:25:12.155Z,98254.16
2022-08-03T19:30:33.476Z,98254.25
2022-08-03T19:35:52.198Z,98253.25
2022-08-03T19:41:02.670Z,98252.00
2022-08-03T19:46:14.160Z,98252.31
2022-08-03T19:51:16.546Z,98257.69
2022-08-03T19:56:24.207Z,98257.72
2022-08-03T20:01:28.231Z,98255.09
2022-08-03T20:06:31.343Z,98252.19
2022-08-03T20:11:33.948Z,98257.28
2022-08-03T20:16:48.975Z,98249.88
2022-08-03T20:21:54.600Z,98244.03
2022-08-03T20:27:01.483Z,98252.63
2022-08-03T20:32:03.458Z,98259.06
2022-08-03T20:37:07.485Z,98256.97
2022-08-03T20:42:14.137Z,98256.72
2022-08-03T20:47:24.251Z,98259.13
2022-08-03T20:52:26.358Z,98250.91
2022-08-03T20:57:28.812Z,98252.25
2022-08-03T21:02:35.437Z,98246.41
2022-08-03T21:13:04.092Z,98227.06
2022-08-03T21:13:08.100Z,98251.25
2022-08-03T21:18:25.514Z,98253.41
2022-08-03T21:23:40.296Z,98259.81
2022-08-03T21:28:52.862Z,98254.47
2022-08-03T21:34:01.267Z,98259.81
2022-08-03T21:39:05.961Z,98256.06
2022-08-03T21:44:08.677Z,98255.53
2022-08-03T21:50:07.931Z,98251.81
2022-08-03T21:54:43.876Z,98255.28
2022-08-03T21:59:53.919Z,98253.41
2022-08-03T22:04:57.297Z,98254.75
2022-08-03T22:10:01.797Z,98265.41
2022-08-03T22:15:07.194Z,98253.94
2022-08-03T22:20:14.376Z,98251.81
2022-08-03T22:25:16.515Z,98255.81
2022-08-03T22:30:19.667Z,98253.41
2022-08-03T22:35:24.175Z,98256.34
2022-08-03T22:40:28.127Z,98260.34
2022-08-03T22:46:07.356Z,98266.72
2022-08-03T22:50:51.920Z,98257.41
2022-08-03T22:55:55.796Z,98259.81
2022-08-03T23:01:26.389Z,98259.28
2022-08-03T23:06:36.264Z,98254.47
2022-08-03T23:11:43.059Z,98255.00
2022-08-03T23:16:50.550Z,98264.84
2022-08-03T23:22:03.968Z,98255.81
2022-08-03T23:27:08.697Z,98258.75
2022-08-03T23:32:13.159Z,98249.69
2022-08-03T23:37:15.911Z,98248.09
2022-08-03T23:42:19.592Z,98254.47
2022-08-03T23:47:22.031Z,98253.94
2022-08-03T23:52:51.892Z,98252.34
2022-08-03T23:58:12.640Z,98251.81
